Weather reports worldwide

Advertisment
Polientes, Spain (8033): temperature & dewpoint: 23.10.2020 12:00:00 - 29.10.2020 12:00:00 (CET)Polientes, Spain (8033): wind speed & gusts: 23.10.2020 12:00:00 - 29.10.2020 12:00:00 (CET)Polientes, Spain (8033): wind direction: 23.10.2020 12:00:00 - 29.10.2020 12:00:00 (CET)Polientes, Spain (8033): precipitation: 23.10.2020 12:00:00 - 29.10.2020 12:00:00 (CET)
Date & Time tt [°C] td [°C] ff [km/h] ff [kn] fx [km/h] fx [kn] dd rr [mm]
29.10.2020 12:00:00 - - - - - - - -
29.10.2020 11:00:00 7,6 6,8 5 3 10 5 W 0,0
29.10.2020 10:00:00 5,9 5,1 6 3 11 6 WSW 0,0
29.10.2020 09:00:00 5,0 4,3 6 3 11 6 WSW 0,0
29.10.2020 08:00:00 4,4 3,6 3 1 9 5 SW 0,0
29.10.2020 07:00:00 4,7 3,9 6 3 13 7 SW -
29.10.2020 06:00:00 4,8 4,1 1 1 6 3 SW 0,0
29.10.2020 05:00:00 4,4 3,6 0 0 7 4 NNE 0,0
29.10.2020 04:00:00 4,4 3,6 0 0 4 2 N 0,0
29.10.2020 03:00:00 4,5 3,8 0 0 4 2 W 0,0
29.10.2020 02:00:00 4,2 3,2 0 0 4 2 N 0,0
29.10.2020 01:00:00 4,1 3,2 0 0 3 1 N -
29.10.2020 00:00:00 4,1 3,0 0 0 4 2 NNE 0,0
28.10.2020 23:00:00 5,4 4,1 0 0 5 3 N 0,0
28.10.2020 22:00:00 6,1 4,6 0 0 5 3 NNW 0,0
28.10.2020 21:00:00 7,0 5,1 2 1 7 4 NNW 0,0
28.10.2020 20:00:00 9,0 6,1 1 0 12 7 NNE 0,0
28.10.2020 19:00:00 10,6 6,4 8 5 18 10 NE -
28.10.2020 18:00:00 13,3 4,6 0 0 16 8 NNE 0,0
28.10.2020 17:00:00 15,9 4,3 10 6 25 14 SW 0,0
28.10.2020 16:00:00 17,6 4,5 11 6 24 13 SW 0,0
28.10.2020 15:00:00 16,0 4,6 10 6 23 12 WSW 0,0
28.10.2020 14:00:00 17,3 5,6 9 5 29 16 SW 0,0
28.10.2020 13:00:00 15,1 5,3 13 7 29 16 SW -
28.10.2020 12:00:00 14,4 5,8 14 8 31 17 SSW 0,0
28.10.2020 11:00:00 13,8 5,5 13 7 28 15 SW 0,0
28.10.2020 10:00:00 13,4 7,6 11 6 20 11 WSW 0,0
28.10.2020 09:00:00 11,7 9,4 1 1 9 5 WSW 0,0
28.10.2020 08:00:00 11,5 9,0 3 2 10 5 SW 0,0
28.10.2020 07:00:00 11,4 8,9 5 3 15 8 SW -
28.10.2020 06:00:00 11,4 8,7 9 5 22 12 SW 0,0
28.10.2020 05:00:00 11,5 8,7 11 6 24 13 SW 0,0
28.10.2020 04:00:00 11,4 8,9 5 3 18 10 SW 0,0
28.10.2020 03:00:00 11,6 8,7 10 5 22 12 SW 0,0
28.10.2020 02:00:00 11,4 8,8 8 4 15 8 SW 0,0
28.10.2020 01:00:00 11,0 8,9 6 3 18 10 SW -
28.10.2020 00:00:00 11,4 8,4 9 5 23 12 SW 0,0
27.10.2020 23:00:00 11,3 8,0 13 7 26 14 SW 0,0
27.10.2020 22:00:00 10,9 8,1 10 5 26 14 SSW 0,0
27.10.2020 21:00:00 11,2 7,6 13 7 34 19 WSW 0,0
27.10.2020 20:00:00 11,3 7,6 10 5 27 15 SW 0,0
27.10.2020 19:00:00 11,4 7,6 12 6 30 16 SW -
27.10.2020 18:00:00 11,2 7,0 16 9 32 17 SW 0,0
27.10.2020 17:00:00 11,8 5,9 16 9 38 21 SW 0,0
27.10.2020 16:00:00 11,8 5,5 23 12 38 20 SW 0,0
27.10.2020 15:00:00 11,7 5,6 19 10 36 20 SW 0,0
27.10.2020 14:00:00 11,1 5,1 16 8 31 17 SW 0,0
27.10.2020 13:00:00 9,8 5,9 13 7 32 18 SW -
27.10.2020 12:00:00 9,9 4,8 16 9 33 18 SW 0,0
27.10.2020 11:00:00 9,0 4,6 16 9 30 16 SW 0,0
27.10.2020 10:00:00 8,7 5,0 17 9 29 16 SW 0,0
27.10.2020 09:00:00 7,9 5,0 13 7 25 14 SW 0,0
27.10.2020 08:00:00 7,0 5,1 11 6 19 11 SW 0,9
27.10.2020 07:00:00 7,5 4,1 12 6 30 16 SW -
27.10.2020 06:00:00 7,7 3,6 13 7 23 13 SW 0,0
27.10.2020 05:00:00 7,3 3,9 9 5 20 11 SW 0,0
27.10.2020 04:00:00 5,7 4,3 5 3 9 5 SW 0,0
27.10.2020 03:00:00 4,5 3,6 1 1 8 4 WSW 0,0
27.10.2020 02:00:00 3,6 2,7 0 0 5 3 W 0,0
27.10.2020 01:00:00 3,6 2,7 0 0 4 2 N -
27.10.2020 00:00:00 3,8 2,9 0 0 4 2 N 0,0
26.10.2020 23:00:00 3,5 2,5 0 0 0 0 N 0,0
26.10.2020 22:00:00 3,9 2,7 0 0 2 1 N 0,0
26.10.2020 21:00:00 4,9 3,6 0 0 5 3 NNW 0,0
26.10.2020 20:00:00 5,2 3,4 1 1 5 3 N 0,0
26.10.2020 19:00:00 6,4 3,9 1 1 5 3 N -
26.10.2020 18:00:00 9,9 2,3 4 2 27 15 W 0,0
26.10.2020 17:00:00 11,2 4,6 4 2 9 5 ENE 0,0
26.10.2020 16:00:00 12,3 4,8 1 0 10 5 ENE 0,2
26.10.2020 15:00:00 9,7 3,9 2 1 18 10 WNW 0,2
26.10.2020 14:00:00 12,2 1,5 6 3 19 10 SW 0,1
26.10.2020 13:00:00 10,9 1,5 5 3 14 8 SW -
26.10.2020 12:00:00 8,9 2,3 4 2 11 6 SW 0,0
26.10.2020 11:00:00 6,8 2,3 2 1 6 4 SSW 0,0
26.10.2020 10:00:00 4,1 2,5 1 0 5 3 WSW 0,0
26.10.2020 09:00:00 0,7 0,0 2 1 5 3 SSW 0,0
26.10.2020 08:00:00 -0,3 -1,0 2 1 6 3 W 0,0
26.10.2020 07:00:00 -0,2 -1,0 0 0 6 3 W -
26.10.2020 06:00:00 0,3 -0,5 0 0 0 0 N 0,0
26.10.2020 05:00:00 0,6 -0,3 0 0 0 0 N 0,0
26.10.2020 04:00:00 1,2 0,4 0 0 0 0 N 0,0
26.10.2020 03:00:00 2,0 1,1 0 0 5 3 NNW 0,0
26.10.2020 02:00:00 3,0 1,9 0 0 4 2 N 0,0
26.10.2020 01:00:00 3,9 2,9 1 1 7 4 N -
26.10.2020 00:00:00 5,1 3,9 0 0 3 2 N 0,0
25.10.2020 23:00:00 6,6 4,3 0 0 13 7 NNE 0,0
25.10.2020 22:00:00 7,2 4,6 2 1 9 5 WNW 0,0
25.10.2020 21:00:00 7,8 5,8 0 0 8 5 N 0,0
25.10.2020 20:00:00 7,9 5,8 3 2 14 7 NE 0,0
25.10.2020 19:00:00 8,3 6,2 6 3 19 11 NE -
25.10.2020 18:00:00 11,1 6,2 1 1 19 10 SSE 0,0
25.10.2020 17:00:00 12,2 7,3 9 5 18 10 SW 0,0
25.10.2020 16:00:00 11,9 8,0 7 4 18 10 SW 0,4
25.10.2020 15:00:00 12,0 9,0 8 4 22 12 WSW 0,0
25.10.2020 14:00:00 12,2 9,0 6 3 27 15 SW 0,0
25.10.2020 13:00:00 11,2 8,9 11 6 40 21 SW -
25.10.2020 12:00:00 12,1 9,3 22 12 54 29 SW 0,2
25.10.2020 11:00:00 12,4 9,6 26 14 56 30 SW 0,1
25.10.2020 10:00:00 11,8 9,2 22 12 53 28 SW 0,1
25.10.2020 09:00:00 11,5 8,1 22 12 55 30 SW 0,0
25.10.2020 08:00:00 11,3 7,8 25 14 55 30 SW 0,7
25.10.2020 07:00:00 11,7 7,3 29 16 68 37 SW -
25.10.2020 06:00:00 12,0 6,8 22 12 54 29 SW 0,0
25.10.2020 05:00:00 11,4 7,6 24 13 53 29 SW 0,0
25.10.2020 04:00:00 11,5 7,4 22 12 50 27 SW 0,0
25.10.2020 03:00:00 11,8 6,7 23 13 60 32 SW 0,0
25.10.2020 02:00:00 11,6 7,0 26 14 54 29 SSW 0,0
25.10.2020 01:00:00 - - - - - - - -
25.10.2020 00:00:00 12,3 6,4 25 13 61 33 SW 0,0
24.10.2020 23:00:00 12,1 6,5 24 13 48 26 SW 0,0
24.10.2020 22:00:00 12,4 6,4 26 14 54 29 SSW 0,0
24.10.2020 21:00:00 12,2 6,4 20 11 45 24 SSW 0,0
24.10.2020 20:00:00 12,1 6,1 25 14 49 27 SW 0,0
24.10.2020 19:00:00 12,2 6,1 19 11 42 23 SW -
24.10.2020 18:00:00 12,5 6,2 17 9 36 19 SSW 0,0
24.10.2020 17:00:00 12,3 6,1 18 10 35 19 SSW 0,0
24.10.2020 16:00:00 12,6 5,9 19 11 39 21 SW 0,0
24.10.2020 15:00:00 11,7 5,8 13 7 36 19 SW 0,0
24.10.2020 14:00:00 12,1 5,8 17 9 37 20 SW 0,0
24.10.2020 13:00:00 - - - - - - - -
24.10.2020 12:00:00 10,5 5,5 18 10 37 20 SW 0,0
24.10.2020 11:00:00 8,7 5,3 16 9 32 18 SW 0,0
24.10.2020 10:00:00 8,4 5,3 10 5 22 12 SSW 0,0
24.10.2020 09:00:00 7,6 5,0 11 6 26 14 SW 0,0
24.10.2020 08:00:00 6,7 5,0 6 3 22 12 S 0,0
24.10.2020 07:00:00 5,5 3,6 1 1 17 9 SSW -
24.10.2020 06:00:00 6,4 4,3 5 3 13 7 WSW 0,0
24.10.2020 05:00:00 6,7 4,1 6 3 18 10 WSW 0,0
24.10.2020 04:00:00 5,0 3,9 5 3 11 6 SW 0,0
24.10.2020 03:00:00 5,0 4,1 0 0 9 5 N 0,0
24.10.2020 02:00:00 4,6 3,8 1 0 8 4 NNW 0,0
24.10.2020 01:00:00 3,8 2,9 0 0 4 2 WSW -
24.10.2020 00:00:00 4,5 3,2 1 1 4 2 WSW 0,0
23.10.2020 23:00:00 5,2 3,9 0 0 4 2 W 0,0
23.10.2020 22:00:00 6,2 4,6 0 0 6 3 NNW 0,0
23.10.2020 21:00:00 6,8 5,1 3 1 8 4 NNE 0,0
23.10.2020 20:00:00 7,6 5,6 0 0 3 2 N 0,0
23.10.2020 19:00:00 9,4 5,5 1 0 16 9 NNW -
23.10.2020 18:00:00 12,5 3,8 10 6 24 13 SW 0,0
23.10.2020 17:00:00 13,8 3,8 11 6 26 14 WSW 0,0
23.10.2020 16:00:00 14,1 4,6 10 5 29 15 SW 0,0
23.10.2020 15:00:00 14,8 4,8 16 8 34 19 SW 0,0
23.10.2020 14:00:00 14,8 3,2 13 7 30 16 SW 0,0
23.10.2020 13:00:00 14,5 4,5 15 8 31 17 WSW -
23.10.2020 12:00:00 13,3 5,1 15 8 29 16 SW 0,0

tt = temperature
td = dewpoint
ff = wind speed
fx = gusts
dd = wind direction
rr = precipitation

Next stations